sensor_id;sensor_type;location;lat;lon;timestamp;P1;durP1;ratioP1;P2;durP2;ratioP2
2061;SDS011;11070;51.336;12.340;2023-09-19T00:02:20;4.37;;;2.50;;
2061;SDS011;11070;51.336;12.340;2023-09-19T00:04:46;2.87;;;2.67;;
2061;SDS011;11070;51.336;12.340;2023-09-19T00:07:13;3.90;;;2.90;;
2061;SDS011;11070;51.336;12.340;2023-09-19T00:09:41;3.75;;;3.45;;
2061;SDS011;11070;51.336;12.340;2023-09-19T00:12:09;5.00;;;3.20;;
2061;SDS011;11070;51.336;12.340;2023-09-19T00:14:35;3.80;;;3.37;;
2061;SDS011;11070;51.336;12.340;2023-09-19T00:17:01;3.73;;;3.43;;
2061;SDS011;11070;51.336;12.340;2023-09-19T00:19:33;5.40;;;3.10;;
2061;SDS011;11070;51.336;12.340;2023-09-19T00:22:02;3.90;;;3.70;;
2061;SDS011;11070;51.336;12.340;2023-09-19T00:24:29;4.40;;;4.10;;
2061;SDS011;11070;51.336;12.340;2023-09-19T00:26:55;4.07;;;3.67;;
2061;SDS011;11070;51.336;12.340;2023-09-19T00:29:21;3.77;;;3.47;;
2061;SDS011;11070;51.336;12.340;2023-09-19T00:31:48;4.28;;;2.95;;
2061;SDS011;11070;51.336;12.340;2023-09-19T00:34:14;4.20;;;3.90;;
2061;SDS011;11070;51.336;12.340;2023-09-19T00:36:41;5.65;;;3.92;;
2061;SDS011;11070;51.336;12.340;2023-09-19T00:39:08;3.75;;;3.40;;
2061;SDS011;11070;51.336;12.340;2023-09-19T00:41:35;5.25;;;3.60;;
2061;SDS011;11070;51.336;12.340;2023-09-19T00:44:02;4.18;;;3.75;;
2061;SDS011;11070;51.336;12.340;2023-09-19T00:46:30;4.18;;;3.85;;
2061;SDS011;11070;51.336;12.340;2023-09-19T00:48:57;4.20;;;3.50;;
2061;SDS011;11070;51.336;12.340;2023-09-19T00:51:24;5.28;;;4.28;;
2061;SDS011;11070;51.336;12.340;2023-09-19T00:53:52;5.40;;;4.13;;
2061;SDS011;11070;51.336;12.340;2023-09-19T00:56:19;4.90;;;3.90;;
2061;SDS011;11070;51.336;12.340;2023-09-19T00:58:45;9.30;;;4.35;;
2061;SDS011;11070;51.336;12.340;2023-09-19T01:01:12;4.85;;;4.35;;
2061;SDS011;11070;51.336;12.340;2023-09-19T01:03:40;5.00;;;4.40;;
2061;SDS011;11070;51.336;12.340;2023-09-19T01:06:06;4.70;;;4.35;;
2061;SDS011;11070;51.336;12.340;2023-09-19T01:08:33;5.13;;;4.30;;
2061;SDS011;11070;51.336;12.340;2023-09-19T01:11:01;6.72;;;4.60;;
2061;SDS011;11070;51.336;12.340;2023-09-19T01:13:47;6.82;;;4.20;;
2061;SDS011;11070;51.336;12.340;2023-09-19T01:16:32;5.70;;;5.07;;
2061;SDS011;11070;51.336;12.340;2023-09-19T01:21:50;5.07;;;4.28;;
2061;SDS011;11070;51.336;12.340;2023-09-19T01:27:25;5.43;;;4.68;;
2061;SDS011;11070;51.336;12.340;2023-09-19T01:30:32;4.85;;;4.30;;
2061;SDS011;11070;51.336;12.340;2023-09-19T01:32:52;4.68;;;4.28;;
2061;SDS011;11070;51.336;12.340;2023-09-19T01:35:18;4.83;;;4.43;;
2061;SDS011;11070;51.336;12.340;2023-09-19T01:37:44;4.95;;;4.47;;
2061;SDS011;11070;51.336;12.340;2023-09-19T01:40:11;5.30;;;4.80;;
2061;SDS011;11070;51.336;12.340;2023-09-19T01:51:00;5.20;;;4.07;;
2061;SDS011;11070;51.336;12.340;2023-09-19T01:56:29;3.88;;;3.67;;
2061;SDS011;11070;51.336;12.340;2023-09-19T01:59:17;3.90;;;3.60;;
2061;SDS011;11070;51.336;12.340;2023-09-19T02:01:50;2.97;;;2.88;;
2061;SDS011;11070;51.336;12.340;2023-09-19T02:04:18;3.00;;;2.70;;
2061;SDS011;11070;51.336;12.340;2023-09-19T02:06:44;3.00;;;2.60;;
2061;SDS011;11070;51.336;12.340;2023-09-19T02:09:12;2.95;;;2.25;;
2061;SDS011;11070;51.336;12.340;2023-09-19T02:11:39;2.80;;;2.53;;
2061;SDS011;11070;51.336;12.340;2023-09-19T02:14:06;2.35;;;2.20;;
2061;SDS011;11070;51.336;12.340;2023-09-19T02:16:33;6.03;;;2.40;;
2061;SDS011;11070;51.336;12.340;2023-09-19T02:18:59;2.45;;;2.25;;
2061;SDS011;11070;51.336;12.340;2023-09-19T02:21:25;2.33;;;2.23;;
2061;SDS011;11070;51.336;12.340;2023-09-19T02:23:54;3.67;;;2.30;;
2061;SDS011;11070;51.336;12.340;2023-09-19T02:26:20;2.35;;;2.22;;
2061;SDS011;11070;51.336;12.340;2023-09-19T02:28:47;2.35;;;2.20;;
2061;SDS011;11070;51.336;12.340;2023-09-19T02:31:13;2.40;;;2.30;;
2061;SDS011;11070;51.336;12.340;2023-09-19T02:33:38;2.87;;;2.50;;
2061;SDS011;11070;51.336;12.340;2023-09-19T02:36:04;2.20;;;2.10;;
2061;SDS011;11070;51.336;12.340;2023-09-19T02:38:30;2.03;;;1.83;;
2061;SDS011;11070;51.336;12.340;2023-09-19T02:40:56;3.63;;;2.37;;
2061;SDS011;11070;51.336;12.340;2023-09-19T02:43:22;2.17;;;2.07;;
2061;SDS011;11070;51.336;12.340;2023-09-19T02:45:49;3.25;;;2.55;;
2061;SDS011;11070;51.336;12.340;2023-09-19T02:48:15;2.83;;;2.63;;
2061;SDS011;11070;51.336;12.340;2023-09-19T02:50:42;2.30;;;2.10;;
2061;SDS011;11070;51.336;12.340;2023-09-19T02:53:08;3.05;;;2.25;;
2061;SDS011;11070;51.336;12.340;2023-09-19T02:55:37;2.08;;;1.98;;
2061;SDS011;11070;51.336;12.340;2023-09-19T02:58:05;3.47;;;2.20;;
2061;SDS011;11070;51.336;12.340;2023-09-19T03:00:36;3.78;;;2.08;;
2061;SDS011;11070;51.336;12.340;2023-09-19T03:03:02;3.28;;;2.42;;
2061;SDS011;11070;51.336;12.340;2023-09-19T03:05:29;2.55;;;2.33;;
2061;SDS011;11070;51.336;12.340;2023-09-19T03:07:58;2.00;;;1.63;;
2061;SDS011;11070;51.336;12.340;2023-09-19T03:10:25;4.15;;;2.00;;
2061;SDS011;11070;51.336;12.340;2023-09-19T03:12:53;2.90;;;2.00;;
2061;SDS011;11070;51.336;12.340;2023-09-19T03:15:18;2.33;;;1.90;;
2061;SDS011;11070;51.336;12.340;2023-09-19T03:17:45;2.20;;;2.00;;
2061;SDS011;11070;51.336;12.340;2023-09-19T03:20:12;2.40;;;2.20;;
2061;SDS011;11070;51.336;12.340;2023-09-19T03:22:39;1.90;;;1.58;;
2061;SDS011;11070;51.336;12.340;2023-09-19T03:25:05;2.30;;;2.20;;
2061;SDS011;11070;51.336;12.340;2023-09-19T03:27:35;2.00;;;1.90;;
2061;SDS011;11070;51.336;12.340;2023-09-19T03:30:02;2.30;;;2.10;;
2061;SDS011;11070;51.336;12.340;2023-09-19T03:32:36;2.05;;;1.95;;
2061;SDS011;11070;51.336;12.340;2023-09-19T03:35:02;1.98;;;1.88;;
2061;SDS011;11070;51.336;12.340;2023-09-19T03:37:30;2.10;;;1.90;;
2061;SDS011;11070;51.336;12.340;2023-09-19T03:39:57;2.15;;;1.95;;
2061;SDS011;11070;51.336;12.340;2023-09-19T03:42:22;2.10;;;2.00;;
2061;SDS011;11070;51.336;12.340;2023-09-19T03:44:50;2.28;;;2.08;;
2061;SDS011;11070;51.336;12.340;2023-09-19T03:47:17;2.58;;;2.38;;
2061;SDS011;11070;51.336;12.340;2023-09-19T03:49:45;2.35;;;2.15;;
2061;SDS011;11070;51.336;12.340;2023-09-19T03:52:10;2.30;;;2.07;;
2061;SDS011;11070;51.336;12.340;2023-09-19T03:54:36;2.80;;;2.20;;
2061;SDS011;11070;51.336;12.340;2023-09-19T03:57:02;2.47;;;2.27;;
2061;SDS011;11070;51.336;12.340;2023-09-19T03:59:29;2.28;;;2.17;;
2061;SDS011;11070;51.336;12.340;2023-09-19T04:01:55;2.47;;;2.27;;
2061;SDS011;11070;51.336;12.340;2023-09-19T04:04:23;2.20;;;2.05;;
2061;SDS011;11070;51.336;12.340;2023-09-19T04:06:50;2.10;;;1.90;;
2061;SDS011;11070;51.336;12.340;2023-09-19T04:09:16;3.17;;;2.17;;
2061;SDS011;11070;51.336;12.340;2023-09-19T04:11:42;2.00;;;1.90;;
2061;SDS011;11070;51.336;12.340;2023-09-19T04:14:07;2.50;;;2.40;;
2061;SDS011;11070;51.336;12.340;2023-09-19T04:16:33;2.20;;;2.00;;
2061;SDS011;11070;51.336;12.340;2023-09-19T04:18:59;2.83;;;2.33;;
2061;SDS011;11070;51.336;12.340;2023-09-19T04:21:24;2.20;;;2.00;;
2061;SDS011;11070;51.336;12.340;2023-09-19T04:23:51;2.55;;;2.10;;
2061;SDS011;11070;51.336;12.340;2023-09-19T04:26:17;2.63;;;2.20;;
2061;SDS011;11070;51.336;12.340;2023-09-19T04:28:43;2.42;;;2.25;;
2061;SDS011;11070;51.336;12.340;2023-09-19T04:31:09;2.17;;;2.07;;
2061;SDS011;11070;51.336;12.340;2023-09-19T04:33:35;2.40;;;2.20;;
2061;SDS011;11070;51.336;12.340;2023-09-19T04:36:01;2.33;;;2.00;;
2061;SDS011;11070;51.336;12.340;2023-09-19T04:38:28;3.38;;;1.95;;
2061;SDS011;11070;51.336;12.340;2023-09-19T04:40:57;2.40;;;2.20;;
2061;SDS011;11070;51.336;12.340;2023-09-19T04:43:24;5.55;;;2.20;;
2061;SDS011;11070;51.336;12.340;2023-09-19T04:45:50;2.20;;;2.10;;
2061;SDS011;11070;51.336;12.340;2023-09-19T04:48:16;2.75;;;2.40;;
2061;SDS011;11070;51.336;12.340;2023-09-19T04:50:41;2.93;;;2.63;;
2061;SDS011;11070;51.336;12.340;2023-09-19T04:53:08;2.45;;;2.05;;
2061;SDS011;11070;51.336;12.340;2023-09-19T04:55:33;2.17;;;2.07;;
2061;SDS011;11070;51.336;12.340;2023-09-19T04:57:59;2.20;;;2.10;;
2061;SDS011;11070;51.336;12.340;2023-09-19T05:00:25;2.37;;;2.17;;
2061;SDS011;11070;51.336;12.340;2023-09-19T05:02:53;2.60;;;1.92;;
2061;SDS011;11070;51.336;12.340;2023-09-19T05:05:21;2.20;;;2.10;;
2061;SDS011;11070;51.336;12.340;2023-09-19T05:07:48;2.13;;;1.95;;
2061;SDS011;11070;51.336;12.340;2023-09-19T05:10:16;2.00;;;1.90;;
2061;SDS011;11070;51.336;12.340;2023-09-19T05:12:43;3.15;;;2.10;;
2061;SDS011;11070;51.336;12.340;2023-09-19T05:15:12;2.30;;;2.20;;
2061;SDS011;11070;51.336;12.340;2023-09-19T05:17:42;2.10;;;1.77;;
2061;SDS011;11070;51.336;12.340;2023-09-19T05:20:12;2.60;;;2.17;;
2061;SDS011;11070;51.336;12.340;2023-09-19T05:22:41;2.35;;;2.15;;
2061;SDS011;11070;51.336;12.340;2023-09-19T05:25:08;3.45;;;2.40;;
2061;SDS011;11070;51.336;12.340;2023-09-19T05:27:35;2.40;;;2.30;;
2061;SDS011;11070;51.336;12.340;2023-09-19T05:30:00;3.47;;;2.00;;
2061;SDS011;11070;51.336;12.340;2023-09-19T05:32:26;2.60;;;2.40;;
2061;SDS011;11070;51.336;12.340;2023-09-19T05:34:52;2.10;;;2.00;;
2061;SDS011;11070;51.336;12.340;2023-09-19T05:37:21;2.05;;;1.85;;
2061;SDS011;11070;51.336;12.340;2023-09-19T05:39:48;2.75;;;2.55;;
2061;SDS011;11070;51.336;12.340;2023-09-19T05:42:14;3.10;;;2.10;;
2061;SDS011;11070;51.336;12.340;2023-09-19T05:44:39;2.20;;;2.03;;
2061;SDS011;11070;51.336;12.340;2023-09-19T05:47:05;2.30;;;2.10;;
2061;SDS011;11070;51.336;12.340;2023-09-19T05:49:33;3.08;;;2.20;;
2061;SDS011;11070;51.336;12.340;2023-09-19T05:52:03;2.47;;;2.28;;
2061;SDS011;11070;51.336;12.340;2023-09-19T05:54:31;2.20;;;2.00;;
2061;SDS011;11070;51.336;12.340;2023-09-19T05:56:59;1.95;;;1.83;;
2061;SDS011;11070;51.336;12.340;2023-09-19T05:59:25;1.90;;;1.80;;
2061;SDS011;11070;51.336;12.340;2023-09-19T06:01:51;4.17;;;2.07;;
2061;SDS011;11070;51.336;12.340;2023-09-19T06:04:17;2.15;;;1.88;;
2061;SDS011;11070;51.336;12.340;2023-09-19T06:06:44;2.03;;;1.92;;
2061;SDS011;11070;51.336;12.340;2023-09-19T06:09:10;2.57;;;2.07;;
2061;SDS011;11070;51.336;12.340;2023-09-19T06:11:35;2.17;;;1.93;;
2061;SDS011;11070;51.336;12.340;2023-09-19T06:14:02;2.00;;;1.80;;
2061;SDS011;11070;51.336;12.340;2023-09-19T06:16:28;1.90;;;1.80;;
2061;SDS011;11070;51.336;12.340;2023-09-19T06:18:55;4.13;;;1.88;;
2061;SDS011;11070;51.336;12.340;2023-09-19T06:21:21;2.23;;;2.03;;
2061;SDS011;11070;51.336;12.340;2023-09-19T06:23:51;2.25;;;2.05;;
2061;SDS011;11070;51.336;12.340;2023-09-19T06:26:18;1.98;;;1.88;;
2061;SDS011;11070;51.336;12.340;2023-09-19T06:28:43;2.40;;;1.80;;
2061;SDS011;11070;51.336;12.340;2023-09-19T06:31:09;2.43;;;1.53;;
2061;SDS011;11070;51.336;12.340;2023-09-19T06:33:36;3.20;;;1.70;;
2061;SDS011;11070;51.336;12.340;2023-09-19T06:36:05;3.17;;;1.80;;
2061;SDS011;11070;51.336;12.340;2023-09-19T06:38:32;4.22;;;2.10;;
2061;SDS011;11070;51.336;12.340;2023-09-19T06:41:01;1.92;;;1.73;;
2061;SDS011;11070;51.336;12.340;2023-09-19T06:43:29;3.20;;;1.75;;
2061;SDS011;11070;51.336;12.340;2023-09-19T06:45:59;1.88;;;1.73;;
2061;SDS011;11070;51.336;12.340;2023-09-19T06:48:25;2.20;;;1.30;;
2061;SDS011;11070;51.336;12.340;2023-09-19T06:50:55;1.73;;;1.55;;
2061;SDS011;11070;51.336;12.340;2023-09-19T06:53:21;2.58;;;1.80;;
2061;SDS011;11070;51.336;12.340;2023-09-19T06:55:49;2.05;;;1.40;;
2061;SDS011;11070;51.336;12.340;2023-09-19T06:58:18;2.55;;;1.52;;
2061;SDS011;11070;51.336;12.340;2023-09-19T07:00:45;2.97;;;1.80;;
2061;SDS011;11070;51.336;12.340;2023-09-19T07:03:12;2.55;;;1.67;;
2061;SDS011;11070;51.336;12.340;2023-09-19T07:05:40;1.63;;;1.52;;
2061;SDS011;11070;51.336;12.340;2023-09-19T07:08:07;2.15;;;1.60;;
2061;SDS011;11070;51.336;12.340;2023-09-19T07:10:36;2.10;;;1.83;;
2061;SDS011;11070;51.336;12.340;2023-09-19T07:13:02;1.70;;;1.60;;
2061;SDS011;11070;51.336;12.340;2023-09-19T07:15:32;5.00;;;2.00;;
2061;SDS011;11070;51.336;12.340;2023-09-19T07:18:03;2.28;;;2.08;;
2061;SDS011;11070;51.336;12.340;2023-09-19T07:20:30;2.03;;;1.90;;
2061;SDS011;11070;51.336;12.340;2023-09-19T07:22:57;2.17;;;1.70;;
2061;SDS011;11070;51.336;12.340;2023-09-19T07:25:29;2.55;;;1.80;;
2061;SDS011;11070;51.336;12.340;2023-09-19T07:27:56;3.92;;;1.70;;
2061;SDS011;11070;51.336;12.340;2023-09-19T07:30:24;3.97;;;1.55;;
2061;SDS011;11070;51.336;12.340;2023-09-19T07:32:51;4.13;;;1.90;;
2061;SDS011;11070;51.336;12.340;2023-09-19T07:35:17;2.70;;;1.65;;
2061;SDS011;11070;51.336;12.340;2023-09-19T07:37:45;1.80;;;1.60;;
2061;SDS011;11070;51.336;12.340;2023-09-19T07:40:14;4.88;;;1.52;;
2061;SDS011;11070;51.336;12.340;2023-09-19T07:42:41;1.95;;;1.50;;
2061;SDS011;11070;51.336;12.340;2023-09-19T07:45:11;4.55;;;1.90;;
2061;SDS011;11070;51.336;12.340;2023-09-19T07:47:48;4.50;;;2.00;;
2061;SDS011;11070;51.336;12.340;2023-09-19T07:50:15;5.83;;;1.70;;
2061;SDS011;11070;51.336;12.340;2023-09-19T07:52:43;2.33;;;1.43;;
2061;SDS011;11070;51.336;12.340;2023-09-19T07:55:10;3.07;;;1.80;;
2061;SDS011;11070;51.336;12.340;2023-09-19T07:57:41;3.83;;;1.70;;
2061;SDS011;11070;51.336;12.340;2023-09-19T08:00:07;1.50;;;1.33;;
2061;SDS011;11070;51.336;12.340;2023-09-19T08:02:35;3.35;;;2.40;;
2061;SDS011;11070;51.336;12.340;2023-09-19T08:05:03;3.55;;;1.50;;
2061;SDS011;11070;51.336;12.340;2023-09-19T08:07:32;4.53;;;1.50;;
2061;SDS011;11070;51.336;12.340;2023-09-19T08:09:58;3.15;;;1.60;;
2061;SDS011;11070;51.336;12.340;2023-09-19T08:12:24;3.17;;;1.40;;
2061;SDS011;11070;51.336;12.340;2023-09-19T08:14:50;4.18;;;2.00;;
2061;SDS011;11070;51.336;12.340;2023-09-19T08:17:16;1.83;;;1.53;;
2061;SDS011;11070;51.336;12.340;2023-09-19T08:19:41;4.33;;;1.80;;
2061;SDS011;11070;51.336;12.340;2023-09-19T08:22:10;2.45;;;1.60;;
2061;SDS011;11070;51.336;12.340;2023-09-19T08:24:35;3.05;;;1.65;;
2061;SDS011;11070;51.336;12.340;2023-09-19T08:27:03;2.43;;;1.70;;
2061;SDS011;11070;51.336;12.340;2023-09-19T08:29:30;4.20;;;1.75;;
2061;SDS011;11070;51.336;12.340;2023-09-19T08:31:56;3.03;;;2.20;;
2061;SDS011;11070;51.336;12.340;2023-09-19T08:34:25;2.95;;;1.92;;
2061;SDS011;11070;51.336;12.340;2023-09-19T08:36:51;1.90;;;1.35;;
2061;SDS011;11070;51.336;12.340;2023-09-19T08:39:23;1.60;;;1.50;;
2061;SDS011;11070;51.336;12.340;2023-09-19T08:41:56;4.43;;;1.77;;
2061;SDS011;11070;51.336;12.340;2023-09-19T08:44:25;5.05;;;1.50;;
2061;SDS011;11070;51.336;12.340;2023-09-19T08:46:55;2.72;;;1.52;;
2061;SDS011;11070;51.336;12.340;2023-09-19T08:52:32;3.25;;;1.65;;
2061;SDS011;11070;51.336;12.340;2023-09-19T08:55:06;3.60;;;1.55;;
2061;SDS011;11070;51.336;12.340;2023-09-19T08:57:35;1.98;;;1.73;;
2061;SDS011;11070;51.336;12.340;2023-09-19T09:00:06;3.25;;;1.55;;
2061;SDS011;11070;51.336;12.340;2023-09-19T09:02:40;4.10;;;1.67;;
2061;SDS011;11070;51.336;12.340;2023-09-19T09:05:08;3.35;;;1.45;;
2061;SDS011;11070;51.336;12.340;2023-09-19T09:07:39;2.47;;;1.90;;
2061;SDS011;11070;51.336;12.340;2023-09-19T09:10:06;2.80;;;1.10;;
2061;SDS011;11070;51.336;12.340;2023-09-19T09:12:33;4.77;;;1.70;;
2061;SDS011;11070;51.336;12.340;2023-09-19T09:15:02;4.53;;;1.50;;
2061;SDS011;11070;51.336;12.340;2023-09-19T09:17:29;4.87;;;1.40;;
2061;SDS011;11070;51.336;12.340;2023-09-19T09:19:55;2.50;;;1.30;;
2061;SDS011;11070;51.336;12.340;2023-09-19T09:22:22;1.40;;;1.30;;
2061;SDS011;11070;51.336;12.340;2023-09-19T09:24:52;2.17;;;1.40;;
2061;SDS011;11070;51.336;12.340;2023-09-19T09:27:19;2.15;;;1.30;;
2061;SDS011;11070;51.336;12.340;2023-09-19T09:29:48;1.50;;;1.40;;
2061;SDS011;11070;51.336;12.340;2023-09-19T09:32:19;3.90;;;1.50;;
2061;SDS011;11070;51.336;12.340;2023-09-19T09:34:49;1.90;;;1.70;;
2061;SDS011;11070;51.336;12.340;2023-09-19T09:37:16;2.15;;;1.65;;
2061;SDS011;11070;51.336;12.340;2023-09-19T09:39:57;3.00;;;1.53;;
2061;SDS011;11070;51.336;12.340;2023-09-19T09:42:55;2.13;;;1.48;;
2061;SDS011;11070;51.336;12.340;2023-09-19T09:45:24;4.32;;;1.70;;
2061;SDS011;11070;51.336;12.340;2023-09-19T09:47:59;2.10;;;1.90;;
2061;SDS011;11070;51.336;12.340;2023-09-19T09:50:32;2.77;;;1.67;;
2061;SDS011;11070;51.336;12.340;2023-09-19T09:58:31;3.77;;;1.97;;
2061;SDS011;11070;51.336;12.340;2023-09-19T10:01:01;3.43;;;1.70;;
2061;SDS011;11070;51.336;12.340;2023-09-19T10:03:40;2.30;;;1.60;;
2061;SDS011;11070;51.336;12.340;2023-09-19T10:06:13;1.63;;;1.53;;
2061;SDS011;11070;51.336;12.340;2023-09-19T10:09:05;1.80;;;1.70;;
2061;SDS011;11070;51.336;12.340;2023-09-19T10:11:46;1.73;;;1.63;;
2061;SDS011;11070;51.336;12.340;2023-09-19T10:14:18;4.72;;;2.15;;
2061;SDS011;11070;51.336;12.340;2023-09-19T10:16:49;1.50;;;1.40;;
2061;SDS011;11070;51.336;12.340;2023-09-19T10:19:15;2.00;;;1.43;;
2061;SDS011;11070;51.336;12.340;2023-09-19T10:21:48;2.30;;;1.83;;
2061;SDS011;11070;51.336;12.340;2023-09-19T10:24:16;1.90;;;1.70;;
2061;SDS011;11070;51.336;12.340;2023-09-19T10:26:45;3.53;;;1.77;;
2061;SDS011;11070;51.336;12.340;2023-09-19T10:29:13;1.87;;;1.70;;
2061;SDS011;11070;51.336;12.340;2023-09-19T10:31:41;4.17;;;2.00;;
2061;SDS011;11070;51.336;12.340;2023-09-19T10:34:12;2.50;;;1.80;;
2061;SDS011;11070;51.336;12.340;2023-09-19T10:36:40;2.40;;;1.83;;
2061;SDS011;11070;51.336;12.340;2023-09-19T10:39:10;3.20;;;1.93;;
2061;SDS011;11070;51.336;12.340;2023-09-19T10:41:38;2.07;;;1.60;;
2061;SDS011;11070;51.336;12.340;2023-09-19T10:44:05;4.60;;;1.77;;
2061;SDS011;11070;51.336;12.340;2023-09-19T10:46:34;2.70;;;1.90;;
2061;SDS011;11070;51.336;12.340;2023-09-19T10:49:00;2.27;;;1.83;;
2061;SDS011;11070;51.336;12.340;2023-09-19T10:51:29;2.57;;;1.90;;
2061;SDS011;11070;51.336;12.340;2023-09-19T10:54:08;3.53;;;2.30;;
2061;SDS011;11070;51.336;12.340;2023-09-19T10:56:38;2.67;;;1.70;;
2061;SDS011;11070;51.336;12.340;2023-09-19T10:59:12;3.40;;;2.47;;
2061;SDS011;11070;51.336;12.340;2023-09-19T11:01:50;2.17;;;1.40;;
2061;SDS011;11070;51.336;12.340;2023-09-19T11:04:27;3.17;;;1.80;;
2061;SDS011;11070;51.336;12.340;2023-09-19T11:07:10;2.80;;;1.30;;
2061;SDS011;11070;51.336;12.340;2023-09-19T11:15:10;2.50;;;1.90;;
2061;SDS011;11070;51.336;12.340;2023-09-19T11:17:57;2.93;;;1.50;;
2061;SDS011;11070;51.336;12.340;2023-09-19T11:20:24;2.07;;;1.70;;
2061;SDS011;11070;51.336;12.340;2023-09-19T11:25:42;1.73;;;1.50;;
2061;SDS011;11070;51.336;12.340;2023-09-19T11:30:53;1.93;;;1.73;;
2061;SDS011;11070;51.336;12.340;2023-09-19T11:33:20;4.90;;;2.00;;
2061;SDS011;11070;51.336;12.340;2023-09-19T11:36:13;2.53;;;1.90;;
2061;SDS011;11070;51.336;12.340;2023-09-19T11:46:34;1.83;;;1.67;;
2061;SDS011;11070;51.336;12.340;2023-09-19T11:49:17;2.30;;;1.67;;
2061;SDS011;11070;51.336;12.340;2023-09-19T11:51:48;2.70;;;1.70;;
2061;SDS011;11070;51.336;12.340;2023-09-19T11:54:19;5.63;;;1.83;;
2061;SDS011;11070;51.336;12.340;2023-09-19T11:56:48;4.83;;;2.20;;
2061;SDS011;11070;51.336;12.340;2023-09-19T11:59:22;4.50;;;1.60;;
2061;SDS011;11070;51.336;12.340;2023-09-19T12:01:52;2.47;;;2.00;;
2061;SDS011;11070;51.336;12.340;2023-09-19T12:07:03;1.70;;;1.40;;
2061;SDS011;11070;51.336;12.340;2023-09-19T12:09:36;2.77;;;1.60;;
2061;SDS011;11070;51.336;12.340;2023-09-19T12:12:05;2.33;;;1.80;;
2061;SDS011;11070;51.336;12.340;2023-09-19T12:14:31;2.47;;;1.80;;
2061;SDS011;11070;51.336;12.340;2023-09-19T12:16:58;4.40;;;1.90;;
2061;SDS011;11070;51.336;12.340;2023-09-19T12:19:26;2.70;;;1.90;;
2061;SDS011;11070;51.336;12.340;2023-09-19T12:24:23;4.10;;;2.07;;
2061;SDS011;11070;51.336;12.340;2023-09-19T12:26:52;4.63;;;2.20;;
2061;SDS011;11070;51.336;12.340;2023-09-19T12:29:21;4.73;;;2.30;;
2061;SDS011;11070;51.336;12.340;2023-09-19T12:31:48;2.17;;;1.80;;
2061;SDS011;11070;51.336;12.340;2023-09-19T12:34:20;2.40;;;2.17;;
2061;SDS011;11070;51.336;12.340;2023-09-19T12:36:47;4.10;;;2.30;;
2061;SDS011;11070;51.336;12.340;2023-09-19T12:39:23;2.77;;;2.47;;
2061;SDS011;11070;51.336;12.340;2023-09-19T12:41:54;3.20;;;2.13;;
2061;SDS011;11070;51.336;12.340;2023-09-19T12:44:21;2.60;;;1.92;;
2061;SDS011;11070;51.336;12.340;2023-09-19T12:46:50;2.55;;;2.35;;
2061;SDS011;11070;51.336;12.340;2023-09-19T12:49:16;5.73;;;2.77;;
2061;SDS011;11070;51.336;12.340;2023-09-19T12:51:48;3.43;;;2.53;;
2061;SDS011;11070;51.336;12.340;2023-09-19T12:54:14;2.50;;;2.23;;
2061;SDS011;11070;51.336;12.340;2023-09-19T12:56:44;2.40;;;2.17;;
2061;SDS011;11070;51.336;12.340;2023-09-19T12:59:11;3.53;;;2.10;;
2061;SDS011;11070;51.336;12.340;2023-09-19T13:01:39;3.60;;;2.33;;
2061;SDS011;11070;51.336;12.340;2023-09-19T13:06:54;2.90;;;2.37;;
2061;SDS011;11070;51.336;12.340;2023-09-19T13:09:20;2.60;;;2.40;;
2061;SDS011;11070;51.336;12.340;2023-09-19T13:11:49;2.53;;;2.30;;
2061;SDS011;11070;51.336;12.340;2023-09-19T13:14:25;2.60;;;2.30;;
2061;SDS011;11070;51.336;12.340;2023-09-19T13:17:03;3.60;;;2.60;;
2061;SDS011;11070;51.336;12.340;2023-09-19T13:19:48;2.43;;;2.27;;
2061;SDS011;11070;51.336;12.340;2023-09-19T13:25:07;2.57;;;2.37;;
2061;SDS011;11070;51.336;12.340;2023-09-19T13:27:39;3.00;;;2.43;;
2061;SDS011;11070;51.336;12.340;2023-09-19T13:30:06;3.23;;;2.60;;
2061;SDS011;11070;51.336;12.340;2023-09-19T13:32:32;2.57;;;2.37;;
2061;SDS011;11070;51.336;12.340;2023-09-19T13:34:59;3.30;;;2.60;;
2061;SDS011;11070;51.336;12.340;2023-09-19T13:37:24;3.07;;;2.60;;
2061;SDS011;11070;51.336;12.340;2023-09-19T13:39:51;2.20;;;2.10;;
2061;SDS011;11070;51.336;12.340;2023-09-19T13:42:17;2.20;;;2.03;;
2061;SDS011;11070;51.336;12.340;2023-09-19T13:44:43;2.67;;;2.47;;
2061;SDS011;11070;51.336;12.340;2023-09-19T13:47:09;4.90;;;2.53;;
2061;SDS011;11070;51.336;12.340;2023-09-19T13:49:38;2.83;;;2.53;;
2061;SDS011;11070;51.336;12.340;2023-09-19T13:52:03;3.20;;;2.60;;
2061;SDS011;11070;51.336;12.340;2023-09-19T13:54:29;5.10;;;3.03;;
2061;SDS011;11070;51.336;12.340;2023-09-19T13:56:55;4.40;;;2.50;;
2061;SDS011;11070;51.336;12.340;2023-09-19T13:59:21;3.13;;;2.67;;
2061;SDS011;11070;51.336;12.340;2023-09-19T14:01:51;6.57;;;3.33;;
2061;SDS011;11070;51.336;12.340;2023-09-19T14:04:19;2.47;;;2.30;;
2061;SDS011;11070;51.336;12.340;2023-09-19T14:06:47;4.20;;;2.80;;
2061;SDS011;11070;51.336;12.340;2023-09-19T14:09:12;6.43;;;3.13;;
2061;SDS011;11070;51.336;12.340;2023-09-19T14:11:39;2.83;;;2.63;;
2061;SDS011;11070;51.336;12.340;2023-09-19T14:14:04;2.70;;;2.50;;
2061;SDS011;11070;51.336;12.340;2023-09-19T14:16:30;2.67;;;2.47;;
2061;SDS011;11070;51.336;12.340;2023-09-19T14:18:57;3.43;;;2.30;;
2061;SDS011;11070;51.336;12.340;2023-09-19T14:21:23;3.00;;;2.80;;
2061;SDS011;11070;51.336;12.340;2023-09-19T14:23:49;2.97;;;2.60;;
2061;SDS011;11070;51.336;12.340;2023-09-19T14:26:14;4.47;;;2.90;;
2061;SDS011;11070;51.336;12.340;2023-09-19T14:28:43;3.37;;;3.07;;
2061;SDS011;11070;51.336;12.340;2023-09-19T14:31:10;2.97;;;2.67;;
2061;SDS011;11070;51.336;12.340;2023-09-19T14:33:36;3.07;;;2.80;;
2061;SDS011;11070;51.336;12.340;2023-09-19T14:36:06;3.00;;;2.80;;
2061;SDS011;11070;51.336;12.340;2023-09-19T14:38:35;3.63;;;3.27;;
2061;SDS011;11070;51.336;12.340;2023-09-19T14:41:02;3.10;;;2.80;;
2061;SDS011;11070;51.336;12.340;2023-09-19T14:43:36;3.07;;;2.77;;
2061;SDS011;11070;51.336;12.340;2023-09-19T14:46:05;4.27;;;3.00;;
2061;SDS011;11070;51.336;12.340;2023-09-19T14:48:35;3.40;;;3.10;;
2061;SDS011;11070;51.336;12.340;2023-09-19T14:51:02;3.20;;;2.70;;
2061;SDS011;11070;51.336;12.340;2023-09-19T14:53:29;5.87;;;3.37;;
2061;SDS011;11070;51.336;12.340;2023-09-19T14:55:55;3.70;;;3.40;;
2061;SDS011;11070;51.336;12.340;2023-09-19T14:58:21;3.00;;;2.80;;
2061;SDS011;11070;51.336;12.340;2023-09-19T15:00:47;4.23;;;3.10;;
2061;SDS011;11070;51.336;12.340;2023-09-19T15:03:12;3.40;;;3.10;;
2061;SDS011;11070;51.336;12.340;2023-09-19T15:05:43;3.43;;;3.13;;
2061;SDS011;11070;51.336;12.340;2023-09-19T15:08:08;3.83;;;3.53;;
2061;SDS011;11070;51.336;12.340;2023-09-19T15:10:34;5.87;;;3.07;;
2061;SDS011;11070;51.336;12.340;2023-09-19T15:13:00;4.20;;;3.37;;
2061;SDS011;11070;51.336;12.340;2023-09-19T15:15:25;3.13;;;2.83;;
2061;SDS011;11070;51.336;12.340;2023-09-19T15:17:51;7.00;;;2.77;;
2061;SDS011;11070;51.336;12.340;2023-09-19T15:20:16;5.40;;;3.20;;
2061;SDS011;11070;51.336;12.340;2023-09-19T15:22:42;4.43;;;3.60;;
2061;SDS011;11070;51.336;12.340;2023-09-19T15:25:09;4.00;;;3.13;;
2061;SDS011;11070;51.336;12.340;2023-09-19T15:27:35;3.63;;;3.10;;
2061;SDS011;11070;51.336;12.340;2023-09-19T15:30:02;6.93;;;3.17;;
2061;SDS011;11070;51.336;12.340;2023-09-19T15:32:28;4.30;;;3.10;;
2061;SDS011;11070;51.336;12.340;2023-09-19T15:34:54;3.00;;;2.73;;
2061;SDS011;11070;51.336;12.340;2023-09-19T15:37:20;3.13;;;2.83;;
2061;SDS011;11070;51.336;12.340;2023-09-19T15:39:47;4.33;;;3.17;;
2061;SDS011;11070;51.336;12.340;2023-09-19T15:42:13;4.60;;;2.90;;
2061;SDS011;11070;51.336;12.340;2023-09-19T15:44:41;4.87;;;3.20;;
2061;SDS011;11070;51.336;12.340;2023-09-19T15:47:08;4.30;;;2.97;;
2061;SDS011;11070;51.336;12.340;2023-09-19T15:49:34;3.53;;;3.23;;
2061;SDS011;11070;51.336;12.340;2023-09-19T15:52:00;6.20;;;3.00;;